Time;durP1;ratioP1;P1;durP2;ratioP2;P2;SDS_P1;SDS_P2;PMS_P1;PMS_P2;Temp;Humidity;BMP_temperature;BMP_pressure;BME280_temperature;BME280_humidity;BME280_pressure;Samples;Min_cycle;Max_cycle;Signal;HPM_P1;HPM_P2
2022/09/04 00:00:43;;;;;;;4.47;1.33;;;;;;;;;;5055879;28;20080;-60
2022/09/04 00:03:27;;;;;;;4.03;1.55;;;;;;;;;;5054125;28;20053;-60
2022/09/04 00:05:55;;;;;;;3.88;1.33;;;;;;;;;;5048753;28;20039;-60
2022/09/04 00:08:40;;;;;;;4.07;1.30;;;;;;;;;;5043934;28;20032;-60
2022/09/04 00:11:12;;;;;;;3.05;1.70;;;;;;;;;;5044790;28;20113;-59
2022/09/04 00:13:48;;;;;;;6.22;1.55;;;;;;;;;;5039218;28;20108;-60
2022/09/04 00:16:18;;;;;;;6.82;1.77;;;;;;;;;;5019684;28;20029;-59
2022/09/04 00:18:53;;;;;;;5.13;1.55;;;;;;;;;;5033900;28;20033;-59
2022/09/04 00:21:36;;;;;;;4.90;1.63;;;;;;;;;;5038509;28;20469;-60
2022/09/04 00:24:08;;;;;;;8.23;1.60;;;;;;;;;;5038465;28;20025;-59
2022/09/04 00:26:49;;;;;;;3.75;1.33;;;;;;;;;;5030654;28;20025;-60
2022/09/04 00:29:21;;;;;;;3.33;1.27;;;;;;;;;;5032194;28;20033;-59
2022/09/04 00:31:53;;;;;;;4.65;1.35;;;;;;;;;;5032001;28;20536;-59
2022/09/04 00:34:38;;;;;;;3.70;1.70;;;;;;;;;;5019636;28;20029;-60
2022/09/04 00:37:05;;;;;;;6.05;1.38;;;;;;;;;;5028517;28;20493;-59
2022/09/04 00:39:38;;;;;;;2.83;1.30;;;;;;;;;;5029523;28;21975;-59
2022/09/04 00:42:04;;;;;;;4.10;1.02;;;;;;;;;;5026970;28;20032;-60
2022/09/04 00:44:48;;;;;;;6.93;1.55;;;;;;;;;;5029431;28;20026;-60
2022/09/04 00:47:29;;;;;;;4.88;1.73;;;;;;;;;;5041569;28;20036;-59
2022/09/04 00:50:17;;;;;;;2.90;1.30;;;;;;;;;;5033139;28;20441;-60
2022/09/04 00:53:01;;;;;;;3.65;1.30;;;;;;;;;;5020917;28;20029;-59
2022/09/04 00:55:39;;;;;;;3.80;1.48;;;;;;;;;;5033253;28;20552;-60
2022/09/04 00:58:32;;;;;;;4.93;1.75;;;;;;;;;;5028346;28;20049;-59
2022/09/04 01:00:59;;;;;;;2.85;1.25;;;;;;;;;;5024527;28;20025;-60
2022/09/04 01:03:34;;;;;;;2.83;1.48;;;;;;;;;;5038875;28;20484;-58
2022/09/04 01:06:10;;;;;;;3.78;1.48;;;;;;;;;;5020905;28;20096;-59
2022/09/04 01:08:42;;;;;;;3.45;1.40;;;;;;;;;;5019254;28;20032;-58
2022/09/04 01:11:14;;;;;;;5.53;1.40;;;;;;;;;;5033777;28;20021;-58
2022/09/04 01:13:46;;;;;;;3.35;1.20;;;;;;;;;;5014226;28;20497;-57
2022/09/04 01:16:19;;;;;;;6.97;1.50;;;;;;;;;;5027979;28;20034;-58
2022/09/04 01:19:01;;;;;;;2.35;1.17;;;;;;;;;;5025218;28;20112;-59
2022/09/04 01:21:47;;;;;;;5.13;1.30;;;;;;;;;;5024342;28;20412;-61
2022/09/04 01:24:32;;;;;;;3.50;1.30;;;;;;;;;;5026881;28;20022;-59
2022/09/04 01:27:08;;;;;;;4.07;1.50;;;;;;;;;;5016614;28;20036;-57
2022/09/04 01:29:52;;;;;;;3.92;1.15;;;;;;;;;;5028535;28;20021;-59
2022/09/04 01:32:37;;;;;;;2.50;1.15;;;;;;;;;;5023124;28;20116;-58
2022/09/04 01:35:22;;;;;;;4.85;1.63;;;;;;;;;;5028846;28;20045;-58
2022/09/04 01:38:06;;;;;;;2.85;0.75;;;;;;;;;;5034848;28;20029;-58
2022/09/04 01:40:51;;;;;;;3.60;1.50;;;;;;;;;;5026585;28;20037;-58
2022/09/04 01:43:21;;;;;;;5.45;1.40;;;;;;;;;;5021755;28;20105;-58
2022/09/04 01:45:55;;;;;;;2.47;1.27;;;;;;;;;;5039506;28;20481;-58
2022/09/04 01:48:27;;;;;;;2.97;1.13;;;;;;;;;;5029205;28;20038;-58
2022/09/04 01:50:58;;;;;;;2.78;1.27;;;;;;;;;;5035891;28;20049;-58
2022/09/04 01:53:25;;;;;;;4.70;1.42;;;;;;;;;;5027253;28;20460;-58
2022/09/04 01:56:03;;;;;;;2.92;1.33;;;;;;;;;;5037593;28;20416;-58
2022/09/04 01:58:41;;;;;;;4.93;1.17;;;;;;;;;;5031337;28;20037;-57
2022/09/04 02:01:16;;;;;;;5.70;1.50;;;;;;;;;;5029267;28;20017;-57
2022/09/04 02:03:57;;;;;;;5.50;1.30;;;;;;;;;;5031425;28;20030;-59
2022/09/04 02:06:31;;;;;;;6.68;1.30;;;;;;;;;;5031451;28;20537;-57
2022/09/04 02:08:57;;;;;;;3.15;1.83;;;;;;;;;;5027286;28;20028;-59
2022/09/04 02:11:25;;;;;;;5.45;1.38;;;;;;;;;;5046143;28;20530;-58
2022/09/04 02:14:07;;;;;;;2.47;1.40;;;;;;;;;;5026975;28;20548;-59
2022/09/04 02:16:45;;;;;;;2.42;1.38;;;;;;;;;;5035222;28;20461;-57
2022/09/04 02:19:47;;;;;;;3.80;1.30;;;;;;;;;;5027977;28;20083;-58
2022/09/04 02:22:31;;;;;;;5.10;0.98;;;;;;;;;;5028413;28;20048;-58
2022/09/04 02:25:05;;;;;;;2.40;1.00;;;;;;;;;;5023673;28;20033;-58
2022/09/04 02:27:41;;;;;;;5.30;1.33;;;;;;;;;;5026524;28;20033;-58
2022/09/04 02:30:09;;;;;;;5.07;1.45;;;;;;;;;;5024905;28;20029;-58
2022/09/04 02:32:36;;;;;;;6.65;1.30;;;;;;;;;;5026808;28;20041;-60
2022/09/04 02:35:14;;;;;;;3.17;1.27;;;;;;;;;;5021320;28;20025;-57
2022/09/04 02:37:45;;;;;;;1.92;1.17;;;;;;;;;;5040434;28;20025;-57
2022/09/04 02:40:22;;;;;;;2.85;1.17;;;;;;;;;;5040177;28;20032;-58
2022/09/04 02:43:03;;;;;;;2.10;0.95;;;;;;;;;;5021524;28;20025;-57
2022/09/04 02:45:34;;;;;;;5.43;1.20;;;;;;;;;;5034033;28;20026;-58
2022/09/04 02:48:18;;;;;;;6.35;1.10;;;;;;;;;;5038821;28;20045;-59
2022/09/04 02:51:16;;;;;;;1.55;1.00;;;;;;;;;;5027781;28;20158;-59
2022/09/04 02:54:01;;;;;;;3.33;1.20;;;;;;;;;;5010702;28;20044;-57
2022/09/04 02:56:47;;;;;;;2.85;1.20;;;;;;;;;;5033025;28;20076;-57
2022/09/04 02:59:34;;;;;;;2.10;1.05;;;;;;;;;;5027494;28;20062;-59
2022/09/04 03:02:02;;;;;;;4.93;1.15;;;;;;;;;;5028863;28;20026;-57
2022/09/04 03:04:48;;;;;;;3.83;1.05;;;;;;;;;;5035442;28;20018;-58
2022/09/04 03:07:20;;;;;;;3.58;0.98;;;;;;;;;;5023029;28;20034;-59
2022/09/04 03:10:05;;;;;;;2.28;1.27;;;;;;;;;;5023823;28;20075;-57
2022/09/04 03:12:31;;;;;;;1.80;1.20;;;;;;;;;;5024526;28;20501;-58
2022/09/04 03:15:03;;;;;;;2.75;1.10;;;;;;;;;;5022127;28;20025;-58
2022/09/04 03:17:45;;;;;;;3.03;1.45;;;;;;;;;;5025773;28;20057;-59
2022/09/04 03:20:20;;;;;;;6.13;1.35;;;;;;;;;;5023551;28;20032;-59
2022/09/04 03:23:09;;;;;;;2.25;1.17;;;;;;;;;;5028537;28;20575;-58
2022/09/04 03:25:47;;;;;;;1.35;0.93;;;;;;;;;;5034909;28;20061;-60
2022/09/04 03:28:25;;;;;;;2.22;1.17;;;;;;;;;;5031234;28;20043;-57
2022/09/04 03:30:53;;;;;;;2.17;1.00;;;;;;;;;;5029821;28;21101;-58
2022/09/04 03:33:26;;;;;;;3.05;1.15;;;;;;;;;;5022528;28;20032;-59
2022/09/04 03:35:52;;;;;;;4.53;1.03;;;;;;;;;;5022290;28;20025;-58
2022/09/04 03:38:27;;;;;;;2.08;0.90;;;;;;;;;;5031936;28;20333;-57
2022/09/04 03:41:12;;;;;;;1.20;1.00;;;;;;;;;;5036208;28;20033;-57
2022/09/04 03:43:48;;;;;;;7.97;1.30;;;;;;;;;;5026702;28;20399;-58
2022/09/04 03:46:34;;;;;;;3.10;1.13;;;;;;;;;;5027344;28;20531;-57
2022/09/04 03:49:09;;;;;;;6.60;1.45;;;;;;;;;;5022993;28;20064;-60
2022/09/04 03:51:43;;;;;;;2.35;1.10;;;;;;;;;;5028733;28;20040;-57
2022/09/04 03:54:33;;;;;;;5.03;1.30;;;;;;;;;;5037547;28;20027;-58
2022/09/04 03:57:18;;;;;;;3.63;1.10;;;;;;;;;;5019055;28;20060;-59
2022/09/04 04:00:03;;;;;;;3.03;1.17;;;;;;;;;;5026930;28;20032;-57
2022/09/04 04:02:48;;;;;;;2.38;1.13;;;;;;;;;;5036252;28;20021;-59
2022/09/04 04:05:24;;;;;;;4.05;1.00;;;;;;;;;;5027759;28;20470;-58
2022/09/04 04:08:09;;;;;;;1.50;1.00;;;;;;;;;;5032350;28;20025;-58
2022/09/04 04:10:52;;;;;;;2.58;1.00;;;;;;;;;;5031525;28;20025;-59
2022/09/04 04:13:37;;;;;;;2.25;1.10;;;;;;;;;;5029647;28;20113;-60
2022/09/04 04:16:11;;;;;;;2.53;1.00;;;;;;;;;;5031131;28;20100;-58
2022/09/04 04:19:05;;;;;;;3.70;1.10;;;;;;;;;;5026590;28;20038;-57
2022/09/04 04:21:34;;;;;;;1.38;0.90;;;;;;;;;;5032606;28;20026;-58
2022/09/04 04:24:21;;;;;;;1.77;1.10;;;;;;;;;;5033029;28;20029;-57
2022/09/04 04:27:07;;;;;;;3.25;1.00;;;;;;;;;;5030407;28;20049;-58
2022/09/04 04:29:39;;;;;;;2.45;1.13;;;;;;;;;;5022189;28;20027;-61
2022/09/04 04:32:16;;;;;;;5.32;1.27;;;;;;;;;;5038939;28;20033;-57
2022/09/04 04:35:02;;;;;;;2.05;1.15;;;;;;;;;;5031461;28;20032;-57
2022/09/04 04:37:34;;;;;;;2.42;1.20;;;;;;;;;;5016965;28;20485;-59
2022/09/04 04:40:06;;;;;;;2.33;0.90;;;;;;;;;;5019985;28;20079;-59
2022/09/04 04:42:41;;;;;;;3.03;1.33;;;;;;;;;;5025169;28;20096;-57
2022/09/04 04:48:22;;;;;;;1.42;0.98;;;;;;;;;;5021892;28;20040;-58
2022/09/04 04:51:07;;;;;;;3.70;1.20;;;;;;;;;;5036986;28;20056;-59
2022/09/04 04:53:51;;;;;;;6.15;1.17;;;;;;;;;;5034060;28;20029;-58
2022/09/04 04:56:25;;;;;;;2.05;0.80;;;;;;;;;;5034216;28;20112;-58
2022/09/04 04:58:55;;;;;;;2.47;0.85;;;;;;;;;;5023970;28;20061;-57
2022/09/04 05:01:39;;;;;;;1.73;1.00;;;;;;;;;;5034254;28;20077;-59
2022/09/04 05:04:23;;;;;;;2.90;1.30;;;;;;;;;;5026556;28;20029;-58
2022/09/04 05:06:58;;;;;;;1.40;1.00;;;;;;;;;;5031854;28;20104;-59
2022/09/04 05:09:30;;;;;;;2.97;1.23;;;;;;;;;;5029671;28;20037;-57
2022/09/04 05:12:03;;;;;;;3.33;1.05;;;;;;;;;;5021765;28;20037;-59
2022/09/04 05:14:39;;;;;;;2.60;1.33;;;;;;;;;;5025492;28;20124;-59
2022/09/04 05:17:08;;;;;;;2.20;1.33;;;;;;;;;;5025651;28;20076;-57
2022/09/04 05:19:47;;;;;;;3.30;1.02;;;;;;;;;;5018862;28;20496;-59
2022/09/04 05:22:16;;;;;;;2.42;1.10;;;;;;;;;;5033777;28;20033;-57
2022/09/04 05:25:01;;;;;;;3.22;1.10;;;;;;;;;;5030582;28;20066;-59
2022/09/04 05:27:41;;;;;;;4.30;1.10;;;;;;;;;;5023841;28;20036;-59
2022/09/04 05:30:19;;;;;;;2.50;1.05;;;;;;;;;;5030250;28;20025;-57
2022/09/04 05:32:55;;;;;;;3.70;1.08;;;;;;;;;;5028962;28;20033;-59
2022/09/04 05:35:39;;;;;;;2.17;1.10;;;;;;;;;;5039515;28;20693;-57
2022/09/04 05:38:31;;;;;;;4.82;1.13;;;;;;;;;;5021013;28;20037;-59
2022/09/04 05:41:04;;;;;;;5.72;1.25;;;;;;;;;;5049001;28;20039;-57
2022/09/04 05:43:30;;;;;;;;;;;;;;;;;;5030952;28;20395;-58
2022/09/04 05:45:57;;;;;;;3.20;0.80;;;;;;;;;;5043365;28;19908;-58
2022/09/04 05:48:30;;;;;;;5.15;1.15;;;;;;;;;;5037039;28;20412;-59
2022/09/04 05:51:31;;;;;;;4.35;1.35;;;;;;;;;;5036915;28;20389;-57
2022/09/04 05:54:19;;;;;;;2.70;1.38;;;;;;;;;;5033764;28;20034;-58
2022/09/04 05:56:50;;;;;;;5.25;1.10;;;;;;;;;;5028010;28;20046;-58
2022/09/04 05:59:22;;;;;;;2.13;1.13;;;;;;;;;;5036190;28;20060;-58
2022/09/04 06:01:59;;;;;;;5.17;1.30;;;;;;;;;;5034357;28;20029;-57
2022/09/04 06:04:35;;;;;;;1.67;1.00;;;;;;;;;;5032530;28;20029;-58
2022/09/04 06:07:04;;;;;;;2.15;1.17;;;;;;;;;;5031448;28;20039;-58
2022/09/04 06:09:56;;;;;;;1.98;0.80;;;;;;;;;;5039307;28;20045;-58
2022/09/04 06:12:33;;;;;;;2.17;1.15;;;;;;;;;;5027310;28;20052;-59
2022/09/04 06:14:59;;;;;;;1.75;1.30;;;;;;;;;;5021971;28;20029;-58
2022/09/04 06:17:37;;;;;;;3.70;1.48;;;;;;;;;;5039826;28;20415;-58
2022/09/04 06:20:18;;;;;;;3.55;1.20;;;;;;;;;;5027887;28;20036;-60
2022/09/04 06:23:03;;;;;;;1.77;1.00;;;;;;;;;;5033496;28;20056;-59
2022/09/04 06:25:40;;;;;;;3.08;1.27;;;;;;;;;;5021350;28;20549;-57
2022/09/04 06:28:12;;;;;;;2.38;1.10;;;;;;;;;;5025631;28;20061;-59
2022/09/04 06:30:45;;;;;;;2.35;1.13;;;;;;;;;;5025264;28;20048;-57
2022/09/04 06:33:14;;;;;;;2.38;1.20;;;;;;;;;;5021958;28;20115;-58
2022/09/04 06:35:41;;;;;;;2.70;1.48;;;;;;;;;;5026660;28;20033;-58
2022/09/04 06:38:21;;;;;;;2.83;1.25;;;;;;;;;;5022224;28;20034;-58
2022/09/04 06:41:00;;;;;;;5.80;1.17;;;;;;;;;;5024521;28;20549;-58
2022/09/04 06:43:36;;;;;;;3.00;1.80;;;;;;;;;;5021360;28;20424;-58
2022/09/04 06:46:02;;;;;;;1.85;1.08;;;;;;;;;;5018484;28;20087;-60
2022/09/04 06:48:28;;;;;;;5.53;1.50;;;;;;;;;;5031482;28;20029;-59
2022/09/04 06:51:09;;;;;;;4.30;1.20;;;;;;;;;;5035370;28;20488;-58
2022/09/04 06:53:41;;;;;;;2.63;1.30;;;;;;;;;;5032052;28;20041;-58
2022/09/04 06:56:26;;;;;;;4.93;1.55;;;;;;;;;;5033247;28;20142;-60
2022/09/04 06:59:10;;;;;;;2.75;1.50;;;;;;;;;;5032416;28;20038;-59
2022/09/04 07:02:00;;;;;;;3.05;1.80;;;;;;;;;;5030993;28;20083;-59
2022/09/04 07:04:37;;;;;;;6.68;1.90;;;;;;;;;;5029994;28;20120;-60
2022/09/04 07:07:21;;;;;;;5.63;1.48;;;;;;;;;;5029202;28;20026;-59
2022/09/04 07:09:59;;;;;;;3.60;1.52;;;;;;;;;;5024263;28;20022;-58
2022/09/04 07:12:43;;;;;;;1.85;1.20;;;;;;;;;;5031378;28;20539;-59
2022/09/04 07:15:16;;;;;;;4.80;1.80;;;;;;;;;;5031897;28;20030;-58
2022/09/04 07:17:52;;;;;;;4.93;1.35;;;;;;;;;;5032983;28;20060;-59
2022/09/04 07:20:37;;;;;;;4.47;2.00;;;;;;;;;;5035832;28;20040;-58
2022/09/04 07:23:09;;;;;;;3.63;1.58;;;;;;;;;;5032739;28;20076;-58
2022/09/04 07:25:40;;;;;;;2.75;1.55;;;;;;;;;;5038819;28;20111;-58
2022/09/04 07:28:14;;;;;;;3.20;1.73;;;;;;;;;;5045788;28;20025;-59
2022/09/04 07:31:09;;;;;;;5.68;1.65;;;;;;;;;;5029472;28;20033;-58
2022/09/04 07:33:40;;;;;;;2.97;2.08;;;;;;;;;;5016392;28;20056;-58
2022/09/04 07:36:25;;;;;;;4.57;2.08;;;;;;;;;;5031127;28;20501;-58
2022/09/04 07:39:03;;;;;;;5.47;1.80;;;;;;;;;;5024343;28;20041;-59
2022/09/04 07:41:41;;;;;;;7.35;2.08;;;;;;;;;;5019982;28;20034;-59
2022/09/04 07:44:16;;;;;;;6.75;1.98;;;;;;;;;;5025721;28;20128;-58
2022/09/04 07:46:48;;;;;;;2.53;1.60;;;;;;;;;;5033186;28;20048;-59
2022/09/04 07:49:23;;;;;;;5.88;2.05;;;;;;;;;;5034668;28;20460;-57
2022/09/04 07:51:56;;;;;;;3.25;1.88;;;;;;;;;;5027130;28;20100;-58
2022/09/04 07:54:40;;;;;;;5.30;2.03;;;;;;;;;;5027653;28;20025;-58
2022/09/04 07:57:24;;;;;;;2.97;1.80;;;;;;;;;;5050041;28;20053;-58
2022/09/04 08:00:08;;;;;;;5.90;2.22;;;;;;;;;;5030376;28;20045;-59
2022/09/04 08:02:57;;;;;;;7.55;2.25;;;;;;;;;;5025442;28;20109;-57
2022/09/04 08:05:29;;;;;;;4.43;1.50;;;;;;;;;;5016680;28;20044;-58
2022/09/04 08:08:01;;;;;;;3.25;1.63;;;;;;;;;;5023592;28;20026;-60
2022/09/04 08:10:30;;;;;;;2.47;1.52;;;;;;;;;;5039229;28;20484;-58
2022/09/04 08:13:09;;;;;;;4.18;1.90;;;;;;;;;;5046021;28;20040;-59
2022/09/04 08:15:41;;;;;;;3.08;1.52;;;;;;;;;;5033252;28;20025;-58
2022/09/04 08:18:20;;;;;;;3.55;1.90;;;;;;;;;;5026701;28;20064;-58
2022/09/04 08:20:51;;;;;;;3.40;1.73;;;;;;;;;;5022348;28;20038;-59
2022/09/04 08:23:29;;;;;;;3.63;1.70;;;;;;;;;;5033172;28;20025;-57
2022/09/04 08:26:03;;;;;;;2.58;1.55;;;;;;;;;;5031240;28;20033;-59
2022/09/04 08:28:48;;;;;;;3.33;1.80;;;;;;;;;;5031155;28;20039;-57
2022/09/04 08:31:15;;;;;;;4.32;1.90;;;;;;;;;;5033275;28;20029;-58
2022/09/04 08:33:52;;;;;;;2.92;1.80;;;;;;;;;;5035853;28;20084;-59
2022/09/04 08:36:31;;;;;;;3.00;1.98;;;;;;;;;;5025131;28;20758;-58
2022/09/04 08:39:08;;;;;;;2.85;1.58;;;;;;;;;;5032227;28;20035;-58
2022/09/04 08:41:48;;;;;;;3.17;1.75;;;;;;;;;;5012299;28;20124;-57
2022/09/04 08:44:42;;;;;;;5.20;1.73;;;;;;;;;;5030706;28;20035;-57
2022/09/04 08:47:20;;;;;;;4.07;2.05;;;;;;;;;;5033038;28;20456;-58
2022/09/04 08:50:05;;;;;;;5.15;2.15;;;;;;;;;;5031097;28;20037;-58
2022/09/04 08:52:37;;;;;;;4.93;2.10;;;;;;;;;;5029418;28;20063;-58
2022/09/04 08:55:23;;;;;;;2.78;1.80;;;;;;;;;;5024901;28;20481;-57
2022/09/04 08:58:00;;;;;;;2.55;1.60;;;;;;;;;;5024437;28;20041;-57
2022/09/04 09:00:56;;;;;;;2.65;1.63;;;;;;;;;;5023428;28;20034;-58
2022/09/04 09:03:34;;;;;;;2.88;1.60;;;;;;;;;;5026264;28;20095;-57
2022/09/04 09:06:27;;;;;;;5.82;2.10;;;;;;;;;;5018516;28;20758;-59
2022/09/04 09:09:12;;;;;;;4.88;1.92;;;;;;;;;;5022907;28;20637;-58
2022/09/04 09:11:57;;;;;;;5.20;1.90;;;;;;;;;;5024721;28;20440;-58
2022/09/04 09:14:41;;;;;;;2.83;1.67;;;;;;;;;;5016256;28;20034;-59
2022/09/04 09:17:11;;;;;;;6.55;2.10;;;;;;;;;;5020430;28;20106;-59
2022/09/04 09:19:44;;;;;;;2.35;1.70;;;;;;;;;;5024940;28;20155;-59
2022/09/04 09:22:13;;;;;;;3.17;1.60;;;;;;;;;;5020663;28;20110;-57
2022/09/04 09:24:48;;;;;;;3.40;1.60;;;;;;;;;;5020320;28;20033;-58
2022/09/04 09:27:41;;;;;;;2.55;1.63;;;;;;;;;;5018060;28;20038;-58
2022/09/04 09:30:20;;;;;;;3.25;1.33;;;;;;;;;;5027812;28;20033;-58
2022/09/04 09:32:57;;;;;;;3.10;1.65;;;;;;;;;;5025146;28;20075;-58
2022/09/04 09:35:42;;;;;;;3.92;1.63;;;;;;;;;;5026275;28;20033;-58
2022/09/04 09:38:34;;;;;;;3.92;1.73;;;;;;;;;;5023545;28;20482;-59
2022/09/04 09:40:59;;;;;;;3.22;1.98;;;;;;;;;;5014105;28;20540;-58
2022/09/04 09:43:34;;;;;;;5.15;1.85;;;;;;;;;;5024716;28;20079;-59
2022/09/04 09:46:16;;;;;;;3.72;1.60;;;;;;;;;;5027943;28;20108;-58
2022/09/04 09:49:00;;;;;;;4.05;1.58;;;;;;;;;;5021831;28;20034;-58
2022/09/04 09:51:44;;;;;;;2.38;1.40;;;;;;;;;;5020432;28;20052;-58
2022/09/04 09:54:29;;;;;;;3.17;1.67;;;;;;;;;;5020479;28;20029;-58
2022/09/04 09:56:57;;;;;;;2.55;1.30;;;;;;;;;;5032083;28;20481;-58
2022/09/04 09:59:26;;;;;;;3.08;1.60;;;;;;;;;;5022579;28;20062;-59
2022/09/04 10:02:07;;;;;;;4.05;1.35;;;;;;;;;;5021796;28;20083;-59
2022/09/04 10:04:52;;;;;;;4.18;1.67;;;;;;;;;;5027040;28;20511;-58
2022/09/04 10:07:18;;;;;;;3.13;1.42;;;;;;;;;;5024295;28;20056;-59
2022/09/04 10:09:50;;;;;;;2.22;1.42;;;;;;;;;;5025695;28;20112;-58
2022/09/04 10:12:19;;;;;;;5.10;1.40;;;;;;;;;;5016488;28;20042;-59
2022/09/04 10:15:08;;;;;;;3.00;1.52;;;;;;;;;;5022599;28;20652;-59
2022/09/04 10:17:50;;;;;;;1.83;1.20;;;;;;;;;;5046052;28;20039;-58
2022/09/04 10:20:23;;;;;;;2.40;1.35;;;;;;;;;;5031519;28;20021;-57
2022/09/04 10:23:07;;;;;;;2.25;1.45;;;;;;;;;;5029947;28;20049;-58
2022/09/04 10:25:45;;;;;;;5.07;1.35;;;;;;;;;;5020197;28;20400;-58
2022/09/04 10:28:24;;;;;;;2.58;1.42;;;;;;;;;;5027412;28;20105;-59
2022/09/04 10:30:58;;;;;;;2.83;1.60;;;;;;;;;;5015195;28;20113;-57
2022/09/04 10:33:36;;;;;;;2.42;1.73;;;;;;;;;;5028936;28;20025;-60
2022/09/04 10:36:13;;;;;;;2.33;1.50;;;;;;;;;;5028177;28;20025;-59
2022/09/04 10:41:55;;;;;;;6.75;1.48;;;;;;;;;;5024669;28;20037;-59
2022/09/04 10:44:31;;;;;;;2.03;1.27;;;;;;;;;;5021963;28;20118;-61
2022/09/04 10:46:57;;;;;;;3.03;1.50;;;;;;;;;;5022620;28;20021;-58
2022/09/04 10:49:26;;;;;;;3.22;1.20;;;;;;;;;;5026637;28;20063;-59
2022/09/04 10:52:15;;;;;;;2.00;1.20;;;;;;;;;;5030481;28;20030;-58
2022/09/04 10:55:01;;;;;;;3.47;1.48;;;;;;;;;;5029179;28;20040;-58
2022/09/04 10:57:47;;;;;;;2.13;1.35;;;;;;;;;;5015699;28;20533;-59
2022/09/04 11:00:15;;;;;;;2.22;1.40;;;;;;;;;;5027321;28;20041;-59
2022/09/04 11:02:41;;;;;;;1.92;1.10;;;;;;;;;;5016549;28;20083;-58
2022/09/04 11:05:19;;;;;;;5.55;1.25;;;;;;;;;;5031417;28;20022;-59
2022/09/04 11:08:05;;;;;;;2.15;1.27;;;;;;;;;;5022628;28;20065;-58
2022/09/04 11:10:45;;;;;;;3.58;1.50;;;;;;;;;;5031170;28;20034;-59
2022/09/04 11:13:11;;;;;;;5.55;1.70;;;;;;;;;;5031459;28;20532;-59
2022/09/04 11:15:49;;;;;;;4.18;1.40;;;;;;;;;;5026980;28;20030;-59
2022/09/04 11:18:27;;;;;;;1.90;1.25;;;;;;;;;;5017844;28;20414;-58
2022/09/04 11:21:06;;;;;;;4.03;1.30;;;;;;;;;;5020196;28;20029;-58
2022/09/04 11:23:51;;;;;;;1.60;1.35;;;;;;;;;;5027223;28;20025;-58
2022/09/04 11:26:38;;;;;;;3.17;1.30;;;;;;;;;;5024959;28;20032;-58
2022/09/04 11:29:09;;;;;;;2.28;1.10;;;;;;;;;;5022469;28;20040;-58
2022/09/04 11:31:38;;;;;;;3.95;1.27;;;;;;;;;;5021604;28;20060;-58
2022/09/04 11:34:25;;;;;;;1.65;1.10;;;;;;;;;;5020663;28;20100;-59
2022/09/04 11:37:01;;;;;;;3.35;1.35;;;;;;;;;;5017540;28;20036;-59
2022/09/04 11:39:39;;;;;;;8.18;1.45;;;;;;;;;;5017047;28;20030;-58
2022/09/04 11:42:19;;;;;;;2.08;1.30;;;;;;;;;;5030090;28;20017;-58
2022/09/04 11:45:15;;;;;;;2.08;1.25;;;;;;;;;;5030000;28;20025;-58
2022/09/04 11:47:59;;;;;;;2.03;1.27;;;;;;;;;;5026102;28;20132;-58
2022/09/04 11:50:36;;;;;;;2.30;1.02;;;;;;;;;;5029290;28;20061;-58
2022/09/04 11:53:03;;;;;;;2.85;1.17;;;;;;;;;;5036629;28;20044;-58
2022/09/04 11:55:36;;;;;;;1.90;1.20;;;;;;;;;;5035299;28;20029;-58
2022/09/04 11:58:17;;;;;;;5.13;1.20;;;;;;;;;;5023356;28;20049;-59
2022/09/04 12:00:43;;;;;;;6.28;1.42;;;;;;;;;;5024913;28;20025;-57
2022/09/04 12:03:26;;;;;;;2.20;0.90;;;;;;;;;;5023835;28;20040;-58
2022/09/04 12:06:08;;;;;;;2.70;1.13;;;;;;;;;;5025788;28;20105;-58
2022/09/04 12:08:43;;;;;;;3.42;0.90;;;;;;;;;;5032780;28;20037;-59
2022/09/04 12:11:31;;;;;;;1.80;0.90;;;;;;;;;;5026187;28;20056;-56
2022/09/04 12:14:07;;;;;;;3.95;0.95;;;;;;;;;;5034013;28;20025;-57
2022/09/04 12:16:49;;;;;;;3.13;0.90;;;;;;;;;;5031735;28;20030;-59
2022/09/04 12:19:26;;;;;;;1.48;0.90;;;;;;;;;;5028356;28;20698;-58
2022/09/04 12:21:52;;;;;;;2.03;0.80;;;;;;;;;;5028840;28;20480;-57
2022/09/04 12:24:37;;;;;;;3.05;1.02;;;;;;;;;;5029080;28;20026;-56
2022/09/04 12:27:21;;;;;;;1.08;0.77;;;;;;;;;;5019400;28;20026;-57
2022/09/04 12:30:04;;;;;;;1.17;0.73;;;;;;;;;;5023087;28;20389;-58
2022/09/04 12:32:49;;;;;;;4.38;1.02;;;;;;;;;;5022833;28;20029;-57
2022/09/04 12:35:30;;;;;;;2.08;0.93;;;;;;;;;;5027500;28;20539;-58
2022/09/04 12:38:16;;;;;;;2.05;1.00;;;;;;;;;;5015867;28;20053;-57
2022/09/04 12:41:00;;;;;;;1.85;0.98;;;;;;;;;;5026024;28;20030;-57
2022/09/04 12:43:38;;;;;;;1.90;0.90;;;;;;;;;;5026468;28;20531;-58
2022/09/04 12:46:20;;;;;;;2.10;1.00;;;;;;;;;;5015356;28;20741;-58
2022/09/04 12:48:58;;;;;;;1.50;0.63;;;;;;;;;;5020698;28;20048;-57
2022/09/04 12:51:29;;;;;;;1.33;0.80;;;;;;;;;;5022951;28;20273;-57
2022/09/04 12:54:01;;;;;;;1.20;0.80;;;;;;;;;;5016988;28;20442;-57
2022/09/04 12:56:47;;;;;;;2.03;0.70;;;;;;;;;;5015290;28;20061;-58
2022/09/04 12:59:31;;;;;;;2.42;0.63;;;;;;;;;;5033771;28;20048;-57
2022/09/04 13:02:04;;;;;;;1.98;0.93;;;;;;;;;;5014535;28;20436;-57
2022/09/04 13:04:39;;;;;;;2.22;0.80;;;;;;;;;;5029750;28;20108;-57
2022/09/04 13:07:12;;;;;;;2.28;0.90;;;;;;;;;;5019077;28;20034;-57
2022/09/04 13:09:44;;;;;;;3.25;1.23;;;;;;;;;;5018239;28;20484;-58
2022/09/04 13:12:22;;;;;;;2.10;0.85;;;;;;;;;;5042219;28;20393;-59
2022/09/04 13:14:51;;;;;;;2.22;0.80;;;;;;;;;;5016159;28;20029;-57
2022/09/04 13:17:28;;;;;;;1.50;0.90;;;;;;;;;;5017609;28;20121;-56
2022/09/04 13:20:03;;;;;;;3.83;1.00;;;;;;;;;;5024750;28;20018;-56
2022/09/04 13:22:47;;;;;;;2.15;1.02;;;;;;;;;;5022775;28;20075;-60
2022/09/04 13:25:32;;;;;;;1.48;0.70;;;;;;;;;;5035415;28;20026;-57
2022/09/04 13:28:09;;;;;;;1.63;0.60;;;;;;;;;;5016420;28;20030;-57
2022/09/04 13:30:42;;;;;;;2.15;1.05;;;;;;;;;;5025699;28;20113;-57
2022/09/04 13:33:20;;;;;;;1.30;0.80;;;;;;;;;;5027295;28;20092;-59
2022/09/04 13:35:57;;;;;;;1.55;0.93;;;;;;;;;;5028040;28;20038;-58
2022/09/04 13:38:33;;;;;;;1.52;0.95;;;;;;;;;;5021420;28;20057;-57
2022/09/04 13:41:17;;;;;;;1.15;0.80;;;;;;;;;;5029206;28;20471;-58
2022/09/04 13:43:55;;;;;;;1.20;0.68;;;;;;;;;;5023658;28;20021;-57
2022/09/04 13:46:27;;;;;;;1.45;0.85;;;;;;;;;;5022842;28;20029;-60
2022/09/04 13:49:06;;;;;;;3.22;0.80;;;;;;;;;;5023099;28;20021;-57
2022/09/04 13:51:35;;;;;;;1.40;0.80;;;;;;;;;;5020954;28;20112;-59
2022/09/04 13:54:25;;;;;;;1.95;1.00;;;;;;;;;;5025694;28;20026;-58
2022/09/04 13:56:51;;;;;;;1.60;0.80;;;;;;;;;;5018524;28;20065;-57
2022/09/04 13:59:19;;;;;;;3.08;0.85;;;;;;;;;;5031435;28;20462;-58
2022/09/04 14:01:46;;;;;;;4.07;0.95;;;;;;;;;;5021574;28;20529;-57
2022/09/04 14:04:15;;;;;;;0.90;0.60;;;;;;;;;;5019450;28;20056;-57
2022/09/04 14:06:41;;;;;;;1.15;0.85;;;;;;;;;;5028974;28;20025;-57
2022/09/04 14:09:07;;;;;;;1.63;0.90;;;;;;;;;;5026579;28;20025;-60
2022/09/04 14:11:53;;;;;;;4.03;0.95;;;;;;;;;;5026063;28;20117;-57
2022/09/04 14:14:40;;;;;;;1.50;0.90;;;;;;;;;;5026599;28;20487;-57
2022/09/04 14:17:06;;;;;;;1.85;1.10;;;;;;;;;;5011987;28;20381;-58
2022/09/04 14:19:41;;;;;;;1.95;0.80;;;;;;;;;;5021915;28;20042;-57
2022/09/04 14:22:16;;;;;;;1.30;0.95;;;;;;;;;;5025402;28;20053;-57
2022/09/04 14:25:05;;;;;;;1.23;0.82;;;;;;;;;;5029496;28;20037;-57
2022/09/04 14:27:40;;;;;;;1.05;0.60;;;;;;;;;;5011801;28;20038;-57
2022/09/04 14:30:08;;;;;;;1.73;1.20;;;;;;;;;;5022654;28;20026;-57
2022/09/04 14:32:36;;;;;;;1.85;1.27;;;;;;;;;;5016027;28;20374;-58
2022/09/04 14:35:17;;;;;;;2.00;0.90;;;;;;;;;;5019305;28;20034;-57
2022/09/04 14:37:53;;;;;;;1.38;0.90;;;;;;;;;;5036656;28;20042;-57
2022/09/04 14:40:38;;;;;;;2.00;1.02;;;;;;;;;;5015569;28;20095;-57
2022/09/04 14:43:12;;;;;;;2.40;0.73;;;;;;;;;;5015817;28;20401;-58
2022/09/04 14:46:01;;;;;;;1.77;0.77;;;;;;;;;;5014324;28;20022;-60
2022/09/04 14:48:27;;;;;;;1.50;0.80;;;;;;;;;;5037206;28;20484;-56
2022/09/04 14:50:56;;;;;;;1.70;0.90;;;;;;;;;;5032008;28;20032;-57
2022/09/04 14:53:27;;;;;;;1.90;0.95;;;;;;;;;;5018870;28;20362;-57
2022/09/04 14:56:12;;;;;;;1.20;0.65;;;;;;;;;;5021961;28;20070;-59
2022/09/04 14:58:43;;;;;;;2.28;0.80;;;;;;;;;;5027728;28;20409;-56
2022/09/04 15:01:17;;;;;;;1.90;0.90;;;;;;;;;;5017850;28;20033;-58
2022/09/04 15:03:46;;;;;;;2.13;1.00;;;;;;;;;;5019312;28;20033;-58
2022/09/04 15:06:15;;;;;;;2.45;0.70;;;;;;;;;;5012841;28;20033;-57
2022/09/04 15:08:41;;;;;;;3.05;1.05;;;;;;;;;;5023502;28;20113;-57
2022/09/04 15:11:09;;;;;;;3.15;1.70;;;;;;;;;;5020897;28;20029;-57
2022/09/04 15:13:41;;;;;;;5.85;1.27;;;;;;;;;;5023262;28;20064;-57
2022/09/04 15:16:11;;;;;;;4.45;1.00;;;;;;;;;;5023527;28;20033;-57
2022/09/04 15:18:44;;;;;;;5.20;1.00;;;;;;;;;;5023404;28;20029;-57
2022/09/04 15:21:14;;;;;;;4.47;1.08;;;;;;;;;;5022180;28;20061;-57
2022/09/04 15:23:49;;;;;;;2.50;1.27;;;;;;;;;;5029825;28;20544;-57
2022/09/04 15:26:22;;;;;;;2.70;1.08;;;;;;;;;;5020676;28;20025;-58
2022/09/04 15:28:50;;;;;;;2.25;1.15;;;;;;;;;;5019262;28;20109;-58
2022/09/04 15:31:17;;;;;;;1.67;0.90;;;;;;;;;;5017942;28;20167;-58
2022/09/04 15:33:44;;;;;;;2.22;1.20;;;;;;;;;;5027823;28;20065;-56
2022/09/04 15:36:23;;;;;;;1.95;1.20;;;;;;;;;;5022370;28;20028;-57
2022/09/04 15:38:59;;;;;;;5.00;1.25;;;;;;;;;;5016077;28;20029;-56
2022/09/04 15:41:43;;;;;;;2.60;1.02;;;;;;;;;;5024705;28;20536;-56
2022/09/04 15:44:14;;;;;;;7.55;1.15;;;;;;;;;;5018958;28;20484;-60
2022/09/04 15:46:40;;;;;;;1.75;1.10;;;;;;;;;;5028398;28;20108;-58
2022/09/04 15:49:20;;;;;;;2.13;1.10;;;;;;;;;;5022185;28;20086;-60